Time;durP1;ratioP1;P1;durP2;ratioP2;P2;SDS_P1;SDS_P2;PMS_P1;PMS_P2;Temp;Humidity;BMP_temperature;BMP_pressure;BME280_temperature;BME280_humidity;BME280_pressure;Samples;Min_cycle;Max_cycle;Signal;HPM_P1;HPM_P2
2023/08/12 00:00:13;;;;;;;4.60;2.70;;;;;;;24.82;37.35;100659.69;108446;1281;22032;-74
2023/08/12 00:02:40;;;;;;;6.50;3.10;;;;;;;24.80;37.43;100657.50;108497;1281;21994;-75
2023/08/12 00:05:06;;;;;;;6.50;2.80;;;;;;;24.76;37.60;100656.28;108475;1281;21995;-60
2023/08/12 00:07:35;;;;;;;7.80;3.30;;;;;;;24.74;37.81;100658.77;108475;1273;21990;-59
2023/08/12 00:10:03;;;;;;;5.10;2.80;;;;;;;24.72;37.85;100659.66;108488;1276;22450;-75
2023/08/12 00:12:29;;;;;;;5.30;2.70;;;;;;;24.70;37.98;100663.35;108404;1281;24868;-59
2023/08/12 00:14:55;;;;;;;5.00;3.00;;;;;;;24.69;38.25;100666.14;108372;1276;22001;-75
2023/08/12 00:17:21;;;;;;;6.20;2.80;;;;;;;24.66;38.33;100665.40;108118;1274;21991;-59
2023/08/12 00:19:46;;;;;;;7.30;2.80;;;;;;;24.64;38.33;100665.86;108400;1281;21979;-60
2023/08/12 00:22:12;;;;;;;6.00;3.10;;;;;;;24.63;38.26;100663.98;108441;1277;21986;-59
2023/08/12 00:24:39;;;;;;;5.20;2.70;;;;;;;24.59;38.24;100667.31;108454;1273;21985;-60
2023/08/12 00:27:06;;;;;;;4.90;2.80;;;;;;;24.55;38.55;100668.79;108516;1280;21982;-60
2023/08/12 00:29:32;;;;;;;7.70;3.10;;;;;;;24.53;38.67;100668.60;108532;1282;22165;-74
2023/08/12 00:31:58;;;;;;;6.50;3.10;;;;;;;24.49;38.71;100665.77;108355;1276;22018;-61
2023/08/12 00:34:23;;;;;;;5.40;2.80;;;;;;;24.45;38.79;100669.27;108456;1282;21986;-74
2023/08/12 00:36:49;;;;;;;5.20;3.00;;;;;;;24.42;38.99;100673.11;108402;1282;21995;-59
2023/08/12 00:39:15;;;;;;;4.80;3.00;;;;;;;24.40;38.95;100676.98;108373;1281;22183;-59
2023/08/12 00:41:41;;;;;;;4.70;2.80;;;;;;;24.37;38.97;100674.09;108361;1276;22154;-74
2023/08/12 00:44:06;;;;;;;6.70;2.90;;;;;;;24.37;38.97;100674.70;108360;1277;22040;-74
2023/08/12 00:46:33;;;;;;;6.60;3.00;;;;;;;24.35;39.23;100675.51;108368;1276;22011;-74
2023/08/12 00:48:58;;;;;;;5.70;3.20;;;;;;;24.32;39.60;100679.77;108408;1280;22219;-60
2023/08/12 00:51:24;;;;;;;5.10;3.30;;;;;;;24.29;39.64;100682.02;108472;1282;21981;-74
2023/08/12 00:53:49;;;;;;;7.60;3.30;;;;;;;24.26;39.52;100683.27;108271;1277;21987;-73
2023/08/12 00:56:15;;;;;;;6.40;3.60;;;;;;;24.24;39.73;100687.16;108444;1280;21989;-60
2023/08/12 00:58:41;;;;;;;5.00;3.00;;;;;;;24.22;39.92;100687.48;108489;1277;22021;-60
2023/08/12 01:01:07;;;;;;;5.00;3.10;;;;;;;24.15;40.29;100687.55;108248;1274;21983;-74
2023/08/12 01:03:33;;;;;;;12.10;3.80;;;;;;;24.11;40.48;100688.90;108424;1282;23653;-60
2023/08/12 01:05:58;;;;;;;6.40;3.20;;;;;;;24.12;40.48;100689.38;108359;1282;21986;-60
2023/08/12 01:08:26;;;;;;;5.30;3.30;;;;;;;24.12;40.71;100687.04;108180;1280;21991;-73
2023/08/12 01:10:52;;;;;;;7.00;4.00;;;;;;;24.12;40.90;100687.05;108397;1281;22000;-60
2023/08/12 01:13:56;;;;;;;7.00;3.60;;;;;;;24.10;41.02;100687.90;108324;1280;21985;-73
2023/08/12 01:16:22;;;;;;;10.00;3.70;;;;;;;24.08;41.20;100689.61;108421;1281;22015;-60
2023/08/12 01:18:48;;;;;;;8.40;3.40;;;;;;;24.06;41.12;100691.31;108164;1280;22015;-73
2023/08/12 01:21:16;;;;;;;8.90;3.30;;;;;;;24.06;41.43;100691.86;108283;1277;21988;-60
2023/08/12 01:23:42;;;;;;;6.20;3.50;;;;;;;24.04;41.30;100693.77;108461;1277;22097;-60
2023/08/12 01:26:07;;;;;;;5.80;3.00;;;;;;;24.05;41.51;100703.06;108463;1281;22164;-73
2023/08/12 01:28:33;;;;;;;5.90;3.30;;;;;;;24.04;41.32;100703.11;108449;1277;21974;-67
2023/08/12 01:31:11;;;;;;;6.50;3.40;;;;;;;24.03;41.48;100705.00;108430;1280;22439;-60
2023/08/12 01:33:44;;;;;;;6.70;3.50;;;;;;;24.02;42.22;100706.11;108361;1277;21993;-60
2023/08/12 01:36:14;;;;;;;5.40;3.60;;;;;;;24.00;42.03;100705.73;108291;1282;21989;-74
2023/08/12 01:38:39;;;;;;;5.00;3.30;;;;;;;23.97;41.98;100704.27;108415;1277;21986;-59
2023/08/12 01:41:07;;;;;;;5.80;3.70;;;;;;;23.93;42.16;100704.48;108126;1280;21999;-60
2023/08/12 01:43:33;;;;;;;5.80;3.60;;;;;;;23.89;42.10;100699.36;108457;1276;21983;-74
2023/08/12 01:45:59;;;;;;;8.00;3.50;;;;;;;23.87;42.30;100701.45;108289;1277;21983;-60
2023/08/12 01:48:24;;;;;;;5.50;3.40;;;;;;;23.87;42.39;100705.95;108289;1281;21988;-74
2023/08/12 01:50:50;;;;;;;5.50;3.30;;;;;;;23.87;42.40;100702.36;108438;1282;21990;-63
2023/08/12 01:53:15;;;;;;;6.70;3.90;;;;;;;23.87;42.40;100701.83;108421;1277;22079;-59
2023/08/12 01:55:44;;;;;;;5.70;3.80;;;;;;;23.86;42.63;100704.94;108425;1276;22121;-73
2023/08/12 01:58:10;;;;;;;5.40;3.60;;;;;;;23.83;42.62;100708.73;108337;1281;21979;-60
2023/08/12 02:00:36;;;;;;;6.80;4.10;;;;;;;23.79;42.35;100709.30;108409;1273;21991;-59
2023/08/12 02:03:02;;;;;;;5.80;3.70;;;;;;;23.78;42.52;100716.17;108466;1276;21983;-73
2023/08/12 02:05:28;;;;;;;7.10;3.60;;;;;;;23.77;42.78;100717.86;108428;1277;22145;-59
2023/08/12 02:07:54;;;;;;;9.50;4.10;;;;;;;23.74;42.91;100719.68;108407;1276;22449;-58
2023/08/12 02:10:19;;;;;;;6.20;3.80;;;;;;;23.71;42.98;100721.80;108416;1273;22018;-72
2023/08/12 02:12:45;;;;;;;5.70;3.80;;;;;;;23.70;42.99;100724.90;108468;1282;21989;-59
2023/08/12 02:15:11;;;;;;;6.30;3.90;;;;;;;23.70;43.06;100724.90;108539;1276;21991;-73
2023/08/12 02:17:37;;;;;;;7.70;4.00;;;;;;;23.71;43.11;100725.23;108422;1281;23341;-58
2023/08/12 02:20:04;;;;;;;13.50;4.00;;;;;;;23.69;43.36;100726.95;108440;1277;22040;-59
2023/08/12 02:22:30;;;;;;;9.50;4.00;;;;;;;23.65;43.84;100725.77;108471;1281;21984;-58
2023/08/12 02:24:55;;;;;;;7.30;4.00;;;;;;;23.60;44.09;100728.37;108440;1276;22020;-74
2023/08/12 02:27:21;;;;;;;5.90;3.80;;;;;;;23.58;43.92;100729.81;108436;1280;22049;-59
2023/08/12 02:29:47;;;;;;;11.10;3.90;;;;;;;23.57;44.18;100733.80;108490;1277;21993;-76
2023/08/12 02:32:12;;;;;;;12.60;3.90;;;;;;;23.58;44.45;100736.76;108142;1281;22043;-73
2023/08/12 02:34:38;;;;;;;10.70;4.20;;;;;;;23.61;44.06;100732.78;108344;1280;21998;-59
2023/08/12 02:37:03;;;;;;;8.30;4.30;;;;;;;23.60;44.36;100731.83;108369;1274;21997;-76
2023/08/12 02:39:29;;;;;;;10.30;4.00;;;;;;;23.56;44.30;100732.40;108420;1274;22025;-60
2023/08/12 02:41:55;;;;;;;7.30;4.00;;;;;;;23.54;44.44;100734.31;108446;1281;22022;-59
2023/08/12 02:44:20;;;;;;;8.20;3.80;;;;;;;23.48;44.68;100738.23;108319;1281;21988;-75
2023/08/12 02:46:46;;;;;;;5.30;3.50;;;;;;;23.27;45.64;100742.02;108375;1277;21988;-60
2023/08/12 02:49:11;;;;;;;6.90;3.90;;;;;;;23.19;46.15;100740.84;108381;1280;21986;-68
2023/08/12 02:51:37;;;;;;;7.50;4.00;;;;;;;23.16;46.71;100740.69;108432;1276;21985;-59
2023/08/12 02:54:02;;;;;;;7.50;4.20;;;;;;;23.12;46.83;100741.25;108493;1280;21985;-75
2023/08/12 02:56:28;;;;;;;8.20;4.00;;;;;;;23.10;46.70;100739.08;108119;1281;22044;-59
2023/08/12 02:58:54;;;;;;;6.70;4.20;;;;;;;23.12;47.27;100743.05;108461;1276;21983;-74
2023/08/12 03:01:21;;;;;;;5.40;3.40;;;;;;;23.11;47.29;100745.06;108459;1276;21985;-76
2023/08/12 03:03:46;;;;;;;7.80;4.00;;;;;;;23.06;47.01;100748.27;108353;1282;21993;-59
2023/08/12 03:06:12;;;;;;;8.40;4.20;;;;;;;23.08;47.30;100747.77;108354;1282;21984;-75
2023/08/12 03:08:37;;;;;;;6.60;3.60;;;;;;;23.21;46.92;100749.54;108385;1277;21989;-75
2023/08/12 03:11:03;;;;;;;10.10;4.40;;;;;;;23.22;47.01;100751.61;108413;1281;22452;-74
2023/08/12 03:13:29;;;;;;;6.70;4.20;;;;;;;23.13;47.57;100755.17;108438;1276;21995;-59
2023/08/12 03:15:55;;;;;;;15.50;4.50;;;;;;;23.10;47.42;100758.19;108453;1277;21984;-59
2023/08/12 03:18:21;;;;;;;6.40;3.50;;;;;;;23.12;47.42;100765.06;108426;1278;21983;-60
2023/08/12 03:20:46;;;;;;;6.30;4.10;;;;;;;23.16;47.67;100768.98;108433;1278;21991;-59
2023/08/12 03:23:12;;;;;;;9.30;3.80;;;;;;;23.18;47.59;100775.27;108433;1270;21991;-69
2023/08/12 03:25:37;;;;;;;11.00;4.10;;;;;;;23.21;47.45;100779.95;108306;1277;21996;-59
2023/08/12 03:28:03;;;;;;;8.40;4.40;;;;;;;23.23;47.74;100777.51;108459;1276;21983;-59
2023/08/12 03:30:29;;;;;;;11.40;4.50;;;;;;;23.24;47.55;100780.54;108451;1277;22246;-58
2023/08/12 03:32:55;;;;;;;9.70;4.30;;;;;;;23.27;47.39;100779.09;108476;1277;21993;-75
2023/08/12 03:35:20;;;;;;;9.90;3.90;;;;;;;23.26;47.58;100779.87;108471;1281;21991;-59
2023/08/12 03:37:46;;;;;;;8.40;3.80;;;;;;;23.32;47.62;100781.50;108494;1274;22024;-58
2023/08/12 03:40:11;;;;;;;6.90;3.90;;;;;;;23.57;47.14;100783.78;108431;1281;22843;-74
2023/08/12 03:42:37;;;;;;;9.70;4.10;;;;;;;23.75;47.08;100781.56;108430;1274;23720;-75
2023/08/12 03:45:03;;;;;;;19.70;4.30;;;;;;;23.88;46.85;100782.58;108300;1277;23730;-75
2023/08/12 03:47:29;;;;;;;12.80;4.10;;;;;;;23.99;46.89;100780.84;108347;1280;23810;-59
2023/08/12 03:49:55;;;;;;;12.90;3.90;;;;;;;24.08;46.98;100780.27;108414;1276;22020;-73
2023/08/12 03:52:21;;;;;;;10.40;4.20;;;;;;;24.18;46.91;100782.39;108444;1281;22335;-59
2023/08/12 03:54:46;;;;;;;10.10;4.10;;;;;;;24.25;46.88;100780.52;108308;1282;21991;-73
2023/08/12 03:57:12;;;;;;;6.50;3.50;;;;;;;24.29;46.91;100778.44;108464;1276;21982;-72
2023/08/12 03:59:38;;;;;;;11.20;4.20;;;;;;;24.34;47.30;100782.41;108445;1281;23173;-59
2023/08/12 04:02:06;;;;;;;12.20;4.00;;;;;;;24.37;46.91;100782.25;108482;1281;21979;-58
2023/08/12 04:04:32;;;;;;;9.80;4.40;;;;;;;24.37;47.54;100782.42;108432;1277;21980;-58
2023/08/12 04:06:57;;;;;;;7.70;4.10;;;;;;;24.39;47.22;100783.20;108440;1276;22455;-59
2023/08/12 04:09:23;;;;;;;7.70;4.20;;;;;;;24.46;47.35;100786.35;108419;1280;21989;-74
2023/08/12 04:11:49;;;;;;;7.10;4.00;;;;;;;24.53;47.25;100789.11;108377;1277;23778;-59
2023/08/12 04:14:14;;;;;;;7.20;3.90;;;;;;;24.59;47.34;100789.82;108441;1280;21986;-58
2023/08/12 04:16:40;;;;;;;6.70;4.10;;;;;;;24.65;47.26;100787.78;108380;1280;21981;-58
2023/08/12 04:19:06;;;;;;;6.00;4.30;;;;;;;24.75;46.95;100790.41;108388;1276;21983;-74
2023/08/12 04:21:31;;;;;;;6.00;3.80;;;;;;;24.87;46.94;100793.39;108361;1277;21982;-58
2023/08/12 04:23:57;;;;;;;5.20;3.70;;;;;;;24.99;46.84;100793.85;108382;1281;21992;-58
2023/08/12 04:26:22;;;;;;;11.10;4.50;;;;;;;25.09;46.95;100795.04;108371;1277;21986;-77
2023/08/12 04:28:48;;;;;;;8.50;4.40;;;;;;;25.15;46.83;100801.59;108409;1277;22019;-58
2023/08/12 04:31:13;;;;;;;11.10;4.60;;;;;;;25.21;46.83;100798.89;108391;1282;22002;-75
2023/08/12 04:33:39;;;;;;;11.80;5.70;;;;;;;25.27;46.73;100797.55;108374;1277;22013;-63
2023/08/12 04:36:05;;;;;;;15.20;7.10;;;;;;;25.37;46.63;100800.14;108335;1280;22765;-58
2023/08/12 04:38:31;;;;;;;19.40;6.40;;;;;;;25.48;47.14;100799.03;108404;1280;21987;-75
2023/08/12 04:40:57;;;;;;;18.70;6.20;;;;;;;25.58;46.87;100796.98;108125;1284;23654;-59
2023/08/12 04:43:22;;;;;;;25.00;6.60;;;;;;;25.66;46.72;100799.63;108449;1276;21993;-76
2023/08/12 04:45:48;;;;;;;9.10;4.30;;;;;;;25.74;46.88;100799.42;108342;1282;21984;-59
2023/08/12 04:48:14;;;;;;;8.90;4.30;;;;;;;25.79;46.93;100800.73;108342;1277;21991;-58
2023/08/12 04:50:39;;;;;;;9.50;4.30;;;;;;;25.84;46.52;100794.59;108397;1281;21996;-59
2023/08/12 04:53:05;;;;;;;11.60;5.10;;;;;;;25.91;46.40;100794.48;108449;1282;21988;-76
2023/08/12 04:55:31;;;;;;;11.00;4.30;;;;;;;26.03;46.51;100794.71;108425;1281;23202;-78
2023/08/12 04:57:57;;;;;;;6.20;4.30;;;;;;;26.13;46.35;100795.48;108436;1280;21977;-78
2023/08/12 05:00:22;;;;;;;5.50;4.10;;;;;;;26.22;46.11;100795.05;108329;1275;21986;-58
2023/08/12 05:02:48;;;;;;;9.20;3.80;;;;;;;26.34;45.88;100801.23;108356;1280;21982;-77
2023/08/12 05:05:14;;;;;;;9.20;4.00;;;;;;;26.44;45.77;100805.34;109432;1277;23134;-77
2023/08/12 05:07:40;;;;;;;5.90;3.60;;;;;;;26.55;45.63;100804.73;108365;1282;21988;-58
2023/08/12 05:10:06;;;;;;;5.80;3.80;;;;;;;26.65;45.55;100803.25;108378;1273;21989;-59
2023/08/12 05:12:31;;;;;;;6.90;4.40;;;;;;;26.73;45.43;100804.10;108472;1281;22027;-60
2023/08/12 05:14:57;;;;;;;7.60;4.30;;;;;;;26.81;45.19;100808.41;108396;1280;21983;-59
2023/08/12 05:17:23;;;;;;;6.70;4.20;;;;;;;26.87;45.07;100806.04;108411;1277;21991;-60
2023/08/12 05:19:49;;;;;;;6.10;3.60;;;;;;;26.93;44.97;100806.52;108354;1281;23605;-59
2023/08/12 05:22:15;;;;;;;8.50;4.00;;;;;;;27.00;44.93;100807.71;108423;1277;21974;-75
2023/08/12 05:24:41;;;;;;;8.50;4.30;;;;;;;27.10;44.79;100807.19;108316;1281;23056;-60
2023/08/12 05:27:06;;;;;;;7.50;4.30;;;;;;;27.18;44.59;100811.45;108362;1274;22004;-59
2023/08/12 05:29:32;;;;;;;6.80;3.70;;;;;;;27.28;44.49;100805.82;108459;1280;22484;-76
2023/08/12 05:31:58;;;;;;;9.60;4.10;;;;;;;27.45;44.62;100800.97;108443;1271;22020;-77
2023/08/12 05:34:23;;;;;;;8.60;4.40;;;;;;;27.57;44.38;100801.69;108476;1276;21989;-65
2023/08/12 05:36:49;;;;;;;8.80;3.90;;;;;;;27.64;44.27;100802.77;108442;1280;21982;-75
2023/08/12 05:39:15;;;;;;;6.20;3.90;;;;;;;27.70;44.20;100801.24;108439;1276;22043;-60
2023/08/12 05:41:41;;;;;;;6.40;4.20;;;;;;;27.77;44.17;100803.35;108447;1277;21978;-60
2023/08/12 05:44:07;;;;;;;6.90;3.90;;;;;;;27.86;44.08;100802.66;108490;1280;21991;-75
2023/08/12 05:46:32;;;;;;;7.30;3.90;;;;;;;27.95;43.91;100802.33;108350;1277;22058;-59
2023/08/12 05:48:58;;;;;;;7.20;4.20;;;;;;;28.02;44.00;100802.63;108442;1281;22021;-78
2023/08/12 05:51:24;;;;;;;7.00;4.90;;;;;;;28.10;43.85;100806.41;108449;1281;23608;-59
2023/08/12 05:53:49;;;;;;;7.80;4.60;;;;;;;28.20;43.69;100805.41;108479;1273;22001;-77
2023/08/12 05:56:15;;;;;;;9.40;4.50;;;;;;;28.38;43.63;100803.86;108452;1277;21973;-60
2023/08/12 05:58:41;;;;;;;5.90;3.90;;;;;;;28.55;43.58;100801.73;108430;1276;21983;-77
2023/08/12 06:01:06;;;;;;;5.40;2.80;;;;;;;28.67;43.37;100800.92;108493;1274;21979;-60
2023/08/12 06:03:32;;;;;;;8.80;3.80;;;;;;;28.78;43.02;100799.66;108413;1281;21986;-77
2023/08/12 06:05:57;;;;;;;5.70;3.80;;;;;;;28.85;42.90;100800.23;108413;1281;21992;-76
2023/08/12 06:08:23;;;;;;;6.10;4.00;;;;;;;28.89;42.58;100806.54;108408;1278;23735;-76
2023/08/12 06:10:49;;;;;;;8.30;4.10;;;;;;;28.92;42.60;100805.96;108489;1276;22015;-77
2023/08/12 06:13:15;;;;;;;10.00;4.60;;;;;;;29.00;42.56;100802.59;108460;1281;23046;-77
2023/08/12 06:15:40;;;;;;;6.60;4.10;;;;;;;29.13;42.72;100800.06;108489;1276;21989;-74
2023/08/12 06:18:06;;;;;;;9.40;4.30;;;;;;;29.27;42.35;100800.30;108476;1276;22031;-74
2023/08/12 06:20:32;;;;;;;6.80;4.20;;;;;;;29.45;42.45;100798.80;108415;1280;21988;-75
2023/08/12 06:22:57;;;;;;;13.40;4.40;;;;;;;29.67;42.14;100793.15;108457;1281;23117;-77
2023/08/12 06:25:23;;;;;;;10.60;4.20;;;;;;;29.83;41.89;100798.61;108437;1273;21995;-59
2023/08/12 06:27:49;;;;;;;9.40;3.70;;;;;;;29.90;41.73;100801.13;108438;1280;21984;-75
2023/08/12 06:30:14;;;;;;;5.20;3.60;;;;;;;29.99;41.88;100801.24;108098;1281;21980;-60
2023/08/12 06:32:40;;;;;;;7.10;3.80;;;;;;;30.19;41.82;100799.67;108484;1280;21994;-59
2023/08/12 06:35:06;;;;;;;6.70;3.60;;;;;;;30.35;41.42;100795.91;108467;1282;22458;-77
2023/08/12 06:37:32;;;;;;;6.40;3.50;;;;;;;30.46;41.48;100797.86;108457;1277;22719;-60
2023/08/12 06:39:57;;;;;;;6.40;4.10;;;;;;;30.64;41.33;100797.52;108458;1281;21986;-77
2023/08/12 06:42:23;;;;;;;4.80;3.30;;;;;;;30.91;41.41;100795.05;108412;1281;23650;-60
2023/08/12 06:44:56;;;;;;;4.70;3.30;;;;;;;31.11;40.90;100794.52;108503;1282;22017;-59
2023/08/12 06:47:22;;;;;;;7.00;3.60;;;;;;;31.22;40.57;100793.67;108483;1277;22021;-77
2023/08/12 06:49:47;;;;;;;5.30;3.40;;;;;;;31.37;40.44;100790.60;108464;1276;22031;-76
2023/08/12 06:52:13;;;;;;;6.30;3.60;;;;;;;31.50;40.31;100790.39;108459;1270;22026;-60
2023/08/12 06:54:38;;;;;;;6.00;3.70;;;;;;;31.68;40.55;100794.28;108467;1276;21995;-76
2023/08/12 06:57:04;;;;;;;5.60;3.40;;;;;;;31.94;40.23;100795.75;108371;1280;21983;-59
2023/08/12 06:59:30;;;;;;;7.20;3.60;;;;;;;32.10;39.98;100795.94;108476;1277;21985;-75
2023/08/12 07:01:55;;;;;;;9.10;4.30;;;;;;;32.22;39.86;100795.16;108210;1276;23641;-60
2023/08/12 07:04:21;;;;;;;6.40;3.40;;;;;;;32.29;39.80;100795.73;108344;1281;22015;-60
2023/08/12 07:06:47;;;;;;;6.60;3.30;;;;;;;32.46;39.57;100791.30;108432;1276;21981;-77
2023/08/12 07:09:13;;;;;;;6.40;3.80;;;;;;;32.64;39.14;100793.55;108471;1280;23638;-60
2023/08/12 07:11:38;;;;;;;6.10;3.60;;;;;;;32.76;39.01;100793.05;108475;1280;21985;-76
2023/08/12 07:14:04;;;;;;;6.90;3.70;;;;;;;32.95;39.20;100794.66;108495;1278;21989;-61
2023/08/12 07:16:30;;;;;;;4.50;3.30;;;;;;;33.15;39.06;100795.35;108454;1280;22024;-73
2023/08/12 07:18:55;;;;;;;6.20;3.10;;;;;;;33.36;38.71;100796.70;108451;1281;21999;-76
2023/08/12 07:21:21;;;;;;;5.00;3.10;;;;;;;33.52;38.63;100797.42;108486;1274;21982;-60
2023/08/12 07:23:47;;;;;;;4.20;3.10;;;;;;;33.68;38.08;100793.05;108437;1281;21983;-77
2023/08/12 07:26:12;;;;;;;5.50;3.20;;;;;;;33.74;37.41;100793.91;108456;1280;21941;-60
2023/08/12 07:29:03;;;;;;;5.90;3.50;;;;;;;33.75;37.27;100796.89;108455;1280;21982;-76
2023/08/12 07:31:29;;;;;;;5.10;3.10;;;;;;;33.70;36.90;100799.04;108094;1281;23638;-60
2023/08/12 07:33:55;;;;;;;5.90;3.10;;;;;;;33.71;37.20;100799.29;108464;1281;22024;-60
2023/08/12 07:36:20;;;;;;;10.60;3.70;;;;;;;33.75;37.13;100795.94;108308;1277;22019;-60
2023/08/12 07:38:46;;;;;;;8.10;3.50;;;;;;;33.82;37.03;100792.31;108462;1281;22454;-59
2023/08/12 07:41:11;;;;;;;5.70;3.30;;;;;;;33.95;37.10;100793.41;108452;1280;21985;-76
2023/08/12 07:43:37;;;;;;;6.10;3.00;;;;;;;34.23;37.21;100791.70;108453;1276;21989;-60
2023/08/12 07:46:04;;;;;;;6.30;3.50;;;;;;;34.53;36.75;100794.02;108493;1278;22009;-60
2023/08/12 07:48:30;;;;;;;7.40;3.60;;;;;;;34.73;36.34;100797.69;108435;1281;21988;-60
2023/08/12 07:50:58;;;;;;;6.10;3.00;;;;;;;34.81;35.93;100801.35;108466;1282;21988;-76
2023/08/12 07:53:24;;;;;;;6.50;3.00;;;;;;;34.96;36.05;100798.62;108096;1280;23647;-77
2023/08/12 07:55:50;;;;;;;4.70;3.00;;;;;;;35.26;36.11;100802.51;108274;1276;22033;-77
2023/08/12 07:58:16;;;;;;;5.80;2.70;;;;;;;35.64;36.05;100801.94;108471;1276;21983;-60
2023/08/12 08:00:42;;;;;;;3.40;2.40;;;;;;;35.94;35.51;100805.52;108538;1271;21995;-60
2023/08/12 08:03:07;;;;;;;4.30;2.60;;;;;;;35.98;35.41;100808.36;108450;1277;21980;-69
2023/08/12 08:05:33;;;;;;;3.50;2.40;;;;;;;36.12;35.58;100810.45;108426;1277;21983;-77
2023/08/12 08:07:59;;;;;;;4.40;2.40;;;;;;;36.38;34.89;100813.34;108257;1273;22738;-77
2023/08/12 08:10:24;;;;;;;3.40;2.20;;;;;;;36.47;34.21;100819.44;108128;1279;21980;-60
2023/08/12 08:12:50;;;;;;;4.80;2.60;;;;;;;36.52;34.60;100816.31;108360;1277;21960;-60
2023/08/12 08:15:16;;;;;;;5.10;2.80;;;;;;;36.61;34.36;100815.95;108382;1280;21987;-75
2023/08/12 08:17:41;;;;;;;5.20;2.50;;;;;;;36.79;34.25;100817.86;108377;1280;21983;-76
2023/08/12 08:20:08;;;;;;;4.40;2.30;;;;;;;37.06;33.76;100821.67;108404;1277;23621;-76
2023/08/12 08:22:33;;;;;;;5.80;2.50;;;;;;;37.17;33.39;100821.08;108404;1282;23716;-60
2023/08/12 08:24:59;;;;;;;6.90;2.30;;;;;;;37.30;33.18;100817.98;108402;1282;21994;-61
2023/08/12 08:27:25;;;;;;;3.90;2.30;;;;;;;37.48;32.70;100818.70;108433;1277;21989;-76
2023/08/12 08:29:51;;;;;;;8.50;3.70;;;;;;;37.55;32.16;100817.72;108394;1280;23609;-68
2023/08/12 08:32:16;;;;;;;7.60;4.30;;;;;;;37.61;32.45;100818.02;108374;1277;21987;-60
2023/08/12 08:34:42;;;;;;;9.40;3.20;;;;;;;37.85;32.64;100817.25;108384;1273;21991;-60
2023/08/12 08:37:08;;;;;;;7.50;2.50;;;;;;;38.08;32.56;100818.41;108371;1282;21996;-60
2023/08/12 08:39:33;;;;;;;4.00;1.70;;;;;;;38.39;32.52;100818.73;108426;1282;21983;-74
2023/08/12 08:41:59;;;;;;;6.90;2.70;;;;;;;38.57;31.34;100819.89;108154;1282;23640;-60
2023/08/12 08:44:25;;;;;;;10.40;3.80;;;;;;;38.52;30.87;100821.61;108079;1282;21985;-78
2023/08/12 08:46:52;;;;;;;9.00;3.00;;;;;;;38.48;31.46;100818.27;108255;1273;21980;-76
2023/08/12 08:49:17;;;;;;;5.70;2.10;;;;;;;38.71;31.54;100813.98;108475;1277;23727;-60
2023/08/12 08:51:43;;;;;;;4.30;2.40;;;;;;;39.06;31.65;100815.85;108088;1280;21986;-60
2023/08/12 08:54:09;;;;;;;4.10;2.20;;;;;;;39.30;30.19;100811.19;108069;1281;21983;-60
2023/08/12 08:56:34;;;;;;;4.90;2.70;;;;;;;39.38;30.62;100810.91;108073;1279;21983;-60
2023/08/12 08:59:01;;;;;;;4.20;2.50;;;;;;;39.55;30.06;100812.95;108370;1276;21986;-78
2023/08/12 09:01:27;;;;;;;3.20;2.20;;;;;;;39.46;29.83;100810.20;108169;1282;23715;-60
2023/08/12 09:03:53;;;;;;;5.30;3.00;;;;;;;39.22;30.00;100808.13;108250;1276;21988;-78
2023/08/12 09:06:20;;;;;;;4.60;3.20;;;;;;;38.98;29.72;100810.44;108282;1277;21993;-61
2023/08/12 09:08:47;;;;;;;3.60;2.50;;;;;;;38.66;29.74;100810.90;108228;1282;23712;-61
2023/08/12 09:11:12;;;;;;;4.60;2.50;;;;;;;38.39;30.19;100812.13;108478;1281;21979;-81
2023/08/12 09:13:38;;;;;;;4.40;2.60;;;;;;;38.25;30.04;100811.44;109062;1281;22413;-79
2023/08/12 09:16:04;;;;;;;3.80;2.30;;;;;;;37.99;29.66;100808.16;108759;1274;21986;-80
2023/08/12 09:18:29;;;;;;;5.40;2.30;;;;;;;37.76;30.35;100808.03;108451;1277;21985;-79
2023/08/12 09:20:55;;;;;;;3.50;2.20;;;;;;;37.81;30.61;100803.55;108426;1281;21989;-60
2023/08/12 09:23:21;;;;;;;4.00;2.40;;;;;;;38.17;30.71;100800.84;108487;1277;21991;-80
2023/08/12 09:25:46;;;;;;;19.30;3.40;;;;;;;38.47;29.90;100796.90;108425;1277;22071;-80
2023/08/12 09:28:13;;;;;;;6.50;2.50;;;;;;;38.62;30.31;100795.53;108468;1282;22075;-80
2023/08/12 09:30:39;;;;;;;5.10;2.10;;;;;;;38.75;29.69;100795.13;108525;1273;21984;-80
2023/08/12 09:33:10;;;;;;;6.10;2.50;;;;;;;38.66;28.74;100794.23;108527;1269;22029;-63
2023/08/12 09:35:37;;;;;;;4.00;2.40;;;;;;;38.25;28.39;100796.73;108461;1273;21984;-77
2023/08/12 09:38:04;;;;;;;3.60;2.10;;;;;;;37.83;29.03;100798.94;108435;1278;23117;-77
2023/08/12 09:40:31;;;;;;;6.70;2.70;;;;;;;37.63;29.39;100794.85;108410;1278;23043;-60
2023/08/12 09:42:57;;;;;;;3.50;2.60;;;;;;;37.52;29.37;100796.52;108455;1281;21980;-60
2023/08/12 09:45:25;;;;;;;5.90;2.50;;;;;;;37.48;29.36;100792.19;108407;1274;21988;-60
2023/08/12 09:47:55;;;;;;;6.60;2.60;;;;;;;37.51;28.70;100793.55;108438;1281;22296;-77
2023/08/12 09:50:22;;;;;;;4.40;2.40;;;;;;;37.43;28.66;100796.61;108418;1281;23629;-76
2023/08/12 09:52:48;;;;;;;3.80;2.30;;;;;;;37.28;29.05;100800.69;108164;1280;23644;-60
2023/08/12 09:55:16;;;;;;;4.80;2.20;;;;;;;37.05;28.67;100798.96;108389;1281;21983;-76
2023/08/12 09:57:42;;;;;;;3.70;2.50;;;;;;;36.63;28.70;100799.83;108478;1271;21989;-77
2023/08/12 10:00:13;;;;;;;4.00;2.20;;;;;;;36.25;28.93;100801.52;108421;1277;21988;-60
2023/08/12 10:02:40;;;;;;;5.20;2.30;;;;;;;36.10;29.27;100799.90;108070;1280;22154;-77
2023/08/12 10:05:06;;;;;;;3.10;2.10;;;;;;;36.14;29.16;100795.98;108453;1281;24411;-60
2023/08/12 10:07:31;;;;;;;5.70;2.40;;;;;;;36.05;29.20;100796.27;108444;1281;22025;-77
2023/08/12 10:09:57;;;;;;;6.10;2.60;;;;;;;36.35;29.62;100791.14;108100;1276;22040;-78
2023/08/12 10:12:22;;;;;;;4.30;2.80;;;;;;;36.71;29.27;100789.98;108117;1281;23729;-60
2023/08/12 10:14:48;;;;;;;6.60;2.30;;;;;;;37.13;29.22;100786.80;108218;1281;21986;-77
2023/08/12 10:17:14;;;;;;;3.40;2.00;;;;;;;37.58;28.96;100782.77;108107;1280;23612;-60
2023/08/12 10:19:44;;;;;;;3.40;2.00;;;;;;;37.92;28.46;100776.76;108235;1282;21977;-60
2023/08/12 10:22:09;;;;;;;5.00;2.10;;;;;;;38.22;28.42;100778.67;108403;1280;23505;-77
2023/08/12 10:24:35;;;;;;;9.20;2.60;;;;;;;38.35;28.19;100780.11;108135;1276;22861;-75
2023/08/12 10:27:01;;;;;;;9.00;2.70;;;;;;;38.44;28.04;100779.42;108080;1282;23641;-60
2023/08/12 10:29:26;;;;;;;11.20;2.60;;;;;;;38.62;28.28;100781.15;108468;1278;21995;-77
2023/08/12 10:31:52;;;;;;;6.00;2.20;;;;;;;38.78;28.14;100780.27;108333;1274;22041;-77
2023/08/12 10:34:21;;;;;;;4.10;2.50;;;;;;;38.88;28.34;100779.23;108285;1281;21985;-60
2023/08/12 10:36:48;;;;;;;5.70;2.60;;;;;;;39.14;27.99;100774.19;108487;1277;21986;-78
2023/08/12 10:39:14;;;;;;;4.30;2.30;;;;;;;39.37;27.73;100776.26;108477;1276;21989;-77
2023/08/12 10:41:49;;;;;;;4.60;2.50;;;;;;;39.45;27.08;100772.09;108519;1277;21989;-77
2023/08/12 10:44:15;;;;;;;3.30;2.50;;;;;;;39.49;26.61;100773.35;108245;1280;21981;-77
2023/08/12 10:46:41;;;;;;;6.00;2.90;;;;;;;39.31;26.79;100779.88;108451;1280;22113;-62
2023/08/12 10:49:10;;;;;;;8.90;3.50;;;;;;;39.08;27.06;100776.09;108163;1281;22007;-76
2023/08/12 10:51:52;;;;;;;3.90;3.10;;;;;;;38.83;27.47;100779.13;108455;1277;21987;-71
2023/08/12 10:54:26;;;;;;;4.40;3.00;;;;;;;38.67;27.20;100774.98;108403;1282;21992;-76
2023/08/12 10:57:11;;;;;;;5.90;3.30;;;;;;;38.67;27.52;100774.52;108508;1273;23051;-61
2023/08/12 10:59:45;;;;;;;4.40;2.60;;;;;;;38.76;27.37;100772.84;108487;1282;21990;-61
2023/08/12 11:02:18;;;;;;;5.30;2.70;;;;;;;38.77;27.06;100770.52;108389;1280;21987;-74
2023/08/12 11:04:44;;;;;;;4.10;2.60;;;;;;;38.76;27.00;100767.29;108268;1282;21985;-76
2023/08/12 11:07:18;;;;;;;3.70;2.40;;;;;;;38.73;27.06;100770.77;108433;1279;21993;-77
2023/08/12 11:09:44;;;;;;;3.80;2.50;;;;;;;38.57;26.62;100776.28;108459;1282;23640;-77
2023/08/12 11:12:11;;;;;;;3.70;2.60;;;;;;;38.27;26.58;100777.34;108083;1281;21996;-76